Time;durP1;ratioP1;P1;durP2;ratioP2;P2;SDS_P1;SDS_P2;PMS_P1;PMS_P2;Temp;Humidity;BMP_temperature;BMP_pressure;BME280_temperature;BME280_humidity;BME280_pressure;Samples;Min_cycle;Max_cycle;Signal;HPM_P1;HPM_P2
2023/04/18 00:00:44;;;;;;;;;;;;;;;9.24;71.76;102573.31;5065434;28;19916;-60
2023/04/18 00:03:09;;;;;;;;;;;;;;;9.23;71.84;102570.78;5056591;28;19923;-60
2023/04/18 00:05:35;;;;;;;;;;;;;;;9.20;71.85;102568.38;5059581;28;19963;-60
2023/04/18 00:08:01;;;;;;;;;;;;;;;9.18;71.82;102570.28;5060025;28;19923;-60
2023/04/18 00:10:26;;;;;;;;;;;;;;;9.16;71.86;102566.91;5066284;28;19917;-60
2023/04/18 00:12:51;;;;;;;;;;;;;;;9.15;71.78;102568.72;5059889;28;19931;-60
2023/04/18 00:15:17;;;;;;;;;;;;;;;9.13;71.83;102572.47;5065716;28;19970;-60
2023/04/18 00:17:42;;;;;;;;;;;;;;;9.12;71.79;102565.47;5062052;28;19927;-60
2023/04/18 00:20:09;;;;;;;;;;;;;;;9.10;72.09;102565.59;5065574;28;20479;-60
2023/04/18 00:22:35;;;;;;;;;;;;;;;9.07;72.04;102565.00;5068630;28;20071;-60
2023/04/18 00:25:00;;;;;;;;;;;;;;;9.05;72.09;102572.22;5062058;28;20003;-60
2023/04/18 00:27:26;;;;;;;;;;;;;;;9.00;71.94;102569.94;5060886;28;19921;-60
2023/04/18 00:29:51;;;;;;;;;;;;;;;8.95;72.34;102564.09;5065361;28;19919;-60
2023/04/18 00:32:16;;;;;;;;;;;;;;;8.91;71.88;102566.16;5063433;28;19921;-60
2023/04/18 00:34:41;;;;;;;;;;;;;;;8.86;72.13;102563.00;5066812;28;19917;-60
2023/04/18 00:37:06;;;;;;;;;;;;;;;8.81;71.78;102559.88;5065824;28;19916;-60
2023/04/18 00:39:33;;;;;;;;;;;;;;;8.78;71.62;102560.13;5065565;28;19924;-60
2023/04/18 00:42:00;;;;;;;;;;;;;;;8.74;71.76;102563.97;5063845;28;20466;-60
2023/04/18 00:44:25;;;;;;;;;;;;;;;8.73;71.76;102562.28;5068344;28;19974;-60
2023/04/18 00:46:50;;;;;;;;;;;;;;;8.69;71.63;102560.81;5069907;28;19920;-60
2023/04/18 00:49:15;;;;;;;;;;;;;;;8.66;71.20;102566.31;5065033;28;19960;-60
2023/04/18 00:51:40;;;;;;;;;;;;;;;8.61;71.26;102564.03;5065983;28;20881;-60
2023/04/18 00:54:06;;;;;;;;;;;;;;;8.57;71.36;102559.09;5070118;28;19916;-60
2023/04/18 00:56:33;;;;;;;;;;;;;;;8.52;71.38;102559.44;5065183;28;19974;-60
2023/04/18 00:58:58;;;;;;;;;;;;;;;8.48;71.26;102555.34;5066410;28;19932;-60
2023/04/18 01:01:23;;;;;;;;;;;;;;;8.45;71.52;102555.56;5066871;28;19924;-60
2023/04/18 01:03:48;;;;;;;;;;;;;;;8.43;71.26;102561.94;5068179;28;19999;-60
2023/04/18 01:06:14;;;;;;;;;;;;;;;8.40;71.49;102562.16;5064371;28;19978;-60
2023/04/18 01:08:40;;;;;;;;;;;;;;;8.37;71.37;102563.22;5060865;28;19917;-60
2023/04/18 01:11:05;;;;;;;;;;;;;;;8.32;71.38;102558.22;5066757;28;19917;-60
2023/04/18 01:13:30;;;;;;;;;;;;;;;8.30;71.47;102560.16;5068252;28;19974;-60
2023/04/18 01:15:56;;;;;;;;;;;;;;;8.27;71.77;102562.19;5062695;28;20383;-60
2023/04/18 01:18:21;;;;;;;;;;;;;;;8.19;72.12;102556.63;5068880;28;20419;-60
2023/04/18 01:20:47;;;;;;;;;;;;;;;8.13;72.29;102557.06;5067867;28;19920;-60
2023/04/18 01:23:13;;;;;;;;;;;;;;;8.08;72.39;102549.44;5067195;28;19916;-60
2023/04/18 01:25:38;;;;;;;;;;;;;;;8.02;72.40;102548.09;5068813;28;19913;-60
2023/04/18 01:28:04;;;;;;;;;;;;;;;7.98;72.51;102545.78;5070053;28;20555;-60
2023/04/18 01:30:29;;;;;;;;;;;;;;;7.93;72.65;102550.59;5066712;28;19917;-60
2023/04/18 01:32:54;;;;;;;;;;;;;;;7.89;72.63;102544.66;5066464;28;19924;-60
2023/04/18 01:35:19;;;;;;;;;;;;;;;7.88;72.76;102542.97;5064998;28;19923;-60
2023/04/18 01:37:45;;;;;;;;;;;;;;;7.86;72.54;102549.34;5063083;28;19999;-60
2023/04/18 01:40:10;;;;;;;;;;;;;;;7.83;72.43;102539.00;5063608;28;20394;-60
2023/04/18 01:42:35;;;;;;;;;;;;;;;7.78;72.51;102532.19;5065065;28;19969;-60
2023/04/18 01:45:00;;;;;;;;;;;;;;;7.73;72.57;102533.50;5069162;28;19917;-60
2023/04/18 01:47:25;;;;;;;;;;;;;;;7.69;72.82;102530.22;5070666;28;19916;-60
2023/04/18 01:49:51;;;;;;;;;;;;;;;7.64;72.85;102536.81;5069736;28;20305;-60
2023/04/18 01:52:16;;;;;;;;;;;;;;;7.57;72.60;102531.13;5069539;28;19928;-60
2023/04/18 01:54:41;;;;;;;;;;;;;;;7.52;72.64;102530.63;5061774;28;20019;-60
2023/04/18 01:57:06;;;;;;;;;;;;;;;7.49;72.70;102530.81;5067441;28;20026;-60
2023/04/18 01:59:31;;;;;;;;;;;;;;;7.47;72.35;102530.91;5065546;28;19916;-60
2023/04/18 02:01:57;;;;;;;;;;;;;;;7.45;72.50;102530.19;5068725;28;19926;-60
2023/04/18 02:04:22;;;;;;;;;;;;;;;7.43;72.08;102531.25;5069322;28;20399;-59
2023/04/18 02:06:47;;;;;;;;;;;;;;;7.38;72.35;102528.94;5067088;28;19912;-60
2023/04/18 02:09:13;;;;;;;;;;;;;;;7.36;72.27;102532.63;5066327;28;20008;-60
2023/04/18 02:11:38;;;;;;;;;;;;;;;7.32;72.09;102529.38;5056516;28;19925;-60
2023/04/18 02:14:03;;;;;;;;;;;;;;;7.29;72.34;102534.03;5067170;28;19923;-60
2023/04/18 02:16:28;;;;;;;;;;;;;;;7.26;72.20;102531.59;5069047;28;19917;-60
2023/04/18 02:18:53;;;;;;;;;;;;;;;7.21;71.86;102529.25;5058080;28;19991;-60
2023/04/18 02:21:20;;;;;;;;;;;;;;;7.18;72.02;102526.84;5069099;28;19912;-60
2023/04/18 02:23:45;;;;;;;;;;;;;;;7.12;71.69;102536.03;5062044;28;20546;-60
2023/04/18 02:26:10;;;;;;;;;;;;;;;7.07;71.66;102529.38;5068511;28;19981;-60
2023/04/18 02:28:37;;;;;;;;;;;;;;;7.02;71.79;102536.78;5063294;28;20324;-60
2023/04/18 02:31:03;;;;;;;;;;;;;;;6.97;71.48;102529.19;5060395;28;19978;-60
2023/04/18 02:33:28;;;;;;;;;;;;;;;6.95;71.71;102530.25;5060998;28;19916;-60
2023/04/18 02:35:53;;;;;;;;;;;;;;;6.91;71.64;102529.59;5064069;28;19917;-60
2023/04/18 02:38:18;;;;;;;;;;;;;;;6.88;71.55;102527.16;5068382;28;19912;-60
2023/04/18 02:40:43;;;;;;;;;;;;;;;6.84;71.61;102529.16;5057867;28;19916;-60
2023/04/18 02:43:09;;;;;;;;;;;;;;;6.80;71.76;102527.69;5055970;28;19956;-60
2023/04/18 02:45:34;;;;;;;;;;;;;;;6.78;71.47;102526.94;5063726;28;19962;-60
2023/04/18 02:47:59;;;;;;;;;;;;;;;6.76;71.75;102528.00;5063584;28;19916;-60
2023/04/18 02:50:25;;;;;;;;;;;;;;;6.73;71.60;102525.59;5067150;28;20301;-60
2023/04/18 02:52:51;;;;;;;;;;;;;;;6.70;71.56;102537.19;5064980;28;20011;-60
2023/04/18 02:55:16;;;;;;;;;;;;;;;6.64;71.50;102520.91;5055602;28;19917;-60
2023/04/18 02:57:41;;;;;;;;;;;;;;;6.61;71.71;102521.09;5060855;28;19935;-60
2023/04/18 03:00:07;;;;;;;;;;;;;;;6.58;71.55;102523.97;5062570;28;19913;-60
2023/04/18 03:02:32;;;;;;;;;;;;;;;6.55;71.30;102522.38;5064683;28;20011;-60
2023/04/18 03:04:57;;;;;;;;;;;;;;;6.53;71.59;102524.28;5064617;28;20027;-60
2023/04/18 03:07:23;;;;;;;;;;;;;;;6.51;71.64;102519.09;5063574;28;21515;-60
2023/04/18 03:09:48;;;;;;;;;;;;;;;6.48;71.30;102519.31;5064417;28;19994;-60
2023/04/18 03:12:13;;;;;;;;;;;;;;;6.47;71.75;102527.34;5055350;28;19930;-60
2023/04/18 03:14:38;;;;;;;;;;;;;;;6.44;71.61;102515.19;5068555;28;19994;-60
2023/04/18 03:17:03;;;;;;;;;;;;;;;6.42;71.78;102518.88;5069033;28;19948;-60
2023/04/18 03:19:30;;;;;;;;;;;;;;;6.40;71.72;102518.13;5066485;28;19943;-60
2023/04/18 03:21:55;;;;;;;;;;;;;;;6.37;71.69;102518.34;5064657;28;19920;-60
2023/04/18 03:24:20;;;;;;;;;;;;;;;6.36;71.76;102532.47;5066747;28;20047;-60
2023/04/18 03:26:45;;;;;;;;;;;;;;;6.34;71.70;102519.38;5056025;28;19927;-60
2023/04/18 03:29:11;;;;;;;;;;;;;;;6.32;71.92;102533.63;5060916;28;19964;-60
2023/04/18 03:31:36;;;;;;;;;;;;;;;6.29;71.79;102524.09;5063739;28;19965;-60
2023/04/18 03:34:01;;;;;;;;;;;;;;;6.27;72.03;102526.00;5057221;28;19951;-60
2023/04/18 03:36:27;;;;;;;;;;;;;;;6.26;72.11;102526.94;5061599;28;19921;-60
2023/04/18 03:38:53;;;;;;;;;;;;;;;6.24;72.09;102528.00;5067235;28;20398;-60
2023/04/18 03:41:18;;;;;;;;;;;;;;;6.25;72.03;102534.97;5063891;28;20019;-59
2023/04/18 03:43:43;;;;;;;;;;;;;;;6.24;71.96;102531.50;5067305;28;19917;-60
2023/04/18 03:46:08;;;;;;;;;;;;;;;6.21;72.08;102535.19;5067296;28;19912;-60
2023/04/18 03:48:35;;;;;;;;;;;;;;;6.19;72.17;102531.78;5066959;28;20018;-60
2023/04/18 03:51:01;;;;;;;;;;;;;;;6.17;72.05;102535.47;5065851;28;20377;-60
2023/04/18 03:53:26;;;;;;;;;;;;;;;6.15;72.34;102532.94;5068126;28;19969;-60
2023/04/18 03:55:51;;;;;;;;;;;;;;;6.14;72.47;102533.03;5063442;28;19959;-60
2023/04/18 03:58:16;;;;;;;;;;;;;;;6.12;72.49;102540.22;5068033;28;19912;-60
2023/04/18 04:00:42;;;;;;;;;;;;;;;6.09;72.25;102536.00;5062272;28;19925;-60
2023/04/18 04:03:07;;;;;;;;;;;;;;;6.07;72.42;102537.88;5065955;28;19943;-60
2023/04/18 04:05:32;;;;;;;;;;;;;;;6.06;72.56;102532.69;5065569;28;19917;-60
2023/04/18 04:07:57;;;;;;;;;;;;;;;6.05;72.54;102534.47;5062080;28;19921;-60
2023/04/18 04:10:22;;;;;;;;;;;;;;;6.03;72.60;102539.00;5063545;28;19927;-60
2023/04/18 04:12:47;;;;;;;;;;;;;;;6.01;72.63;102535.63;5066889;28;20077;-60
2023/04/18 04:15:13;;;;;;;;;;;;;;;5.99;72.49;102539.31;5066372;28;19916;-60
2023/04/18 04:17:38;;;;;;;;;;;;;;;5.98;72.49;102537.59;5067077;28;20378;-60
2023/04/18 04:20:04;;;;;;;;;;;;;;;5.96;72.37;102529.81;5066628;28;20008;-60
2023/04/18 04:22:29;;;;;;;;;;;;;;;5.94;72.46;102536.97;5058674;28;19921;-60
2023/04/18 04:24:56;;;;;;;;;;;;;;;5.93;72.30;102537.91;5064783;28;20447;-60
2023/04/18 04:27:21;;;;;;;;;;;;;;;5.92;72.68;102544.13;5067483;28;19989;-60
2023/04/18 04:29:48;;;;;;;;;;;;;;;5.91;72.50;102542.44;5057767;28;20447;-60
2023/04/18 04:32:13;;;;;;;;;;;;;;;5.89;72.55;102549.56;5067274;28;19912;-60
2023/04/18 04:34:40;;;;;;;;;;;;;;;5.87;72.54;102544.41;5066118;28;19912;-60
2023/04/18 04:37:05;;;;;;;;;;;;;;;5.85;72.77;102548.94;5061050;28;19948;-60
2023/04/18 04:39:30;;;;;;;;;;;;;;;5.84;72.71;102546.38;5063613;28;20031;-60
2023/04/18 04:41:56;;;;;;;;;;;;;;;5.83;72.90;102547.34;5063454;28;19920;-59
2023/04/18 04:44:24;;;;;;;;;;;;;;;5.79;73.11;102556.38;5065988;28;20537;-60
2023/04/18 04:46:49;;;;;;;;;;;;;;;5.78;73.07;102552.91;5060342;28;19919;-60
2023/04/18 04:49:14;;;;;;;;;;;;;;;5.75;72.96;102553.06;5064919;28;20010;-60
2023/04/18 04:51:40;;;;;;;;;;;;;;;5.74;72.97;102551.38;5061677;28;19958;-60
2023/04/18 04:54:05;;;;;;;;;;;;;;;5.72;72.96;102555.06;5064405;28;20051;-60
2023/04/18 04:56:30;;;;;;;;;;;;;;;5.70;73.24;102560.44;5061146;28;19952;-60
2023/04/18 04:58:56;;;;;;;;;;;;;;;5.71;73.08;102563.91;5056568;28;19913;-60
2023/04/18 05:01:21;;;;;;;;;;;;;;;5.65;73.25;102546.69;5056941;28;20007;-60
2023/04/18 05:03:46;;;;;;;;;;;;;;;5.74;73.15;102561.06;5062658;28;19920;-60
2023/04/18 05:06:12;;;;;;;;;;;;;;;5.73;72.90;102565.50;5056043;28;19927;-60
2023/04/18 05:08:38;;;;;;;;;;;;;;;5.73;73.04;102560.22;5064414;28;20381;-60
2023/04/18 05:11:03;;;;;;;;;;;;;;;5.74;73.33;102563.72;5059000;28;20003;-60
2023/04/18 05:13:28;;;;;;;;;;;;;;;5.73;73.30;102554.13;5064047;28;19923;-60
2023/04/18 05:15:54;;;;;;;;;;;;;;;5.73;73.23;102562.03;5063510;28;19968;-59
2023/04/18 05:18:19;;;;;;;;;;;;;;;5.73;73.35;102560.22;5062661;28;19923;-60
2023/04/18 05:20:44;;;;;;;;;;;;;;;5.75;73.19;102557.50;5068351;28;20285;-60
2023/04/18 05:23:11;;;;;;;;;;;;;;;5.75;73.62;102557.50;5062092;28;19925;-59
2023/04/18 05:25:36;;;;;;;;;;;;;;;5.77;73.51;102563.50;5064315;28;19934;-60
2023/04/18 05:28:03;;;;;;;;;;;;;;;5.80;73.44;102558.06;5066878;28;20514;-60
2023/04/18 05:30:28;;;;;;;;;;;;;;;5.76;73.33;102552.13;5061008;28;19916;-60
2023/04/18 05:32:53;;;;;;;;;;;;;;;5.83;73.65;102556.09;5066997;28;20008;-59
2023/04/18 05:35:19;;;;;;;;;;;;;;;5.84;73.48;102562.22;5063515;28;19916;-60
2023/04/18 05:37:44;;;;;;;;;;;;;;;5.85;73.35;102563.91;5066225;28;19916;-60
2023/04/18 05:40:10;;;;;;;;;;;;;;;5.87;73.70;102572.56;5061259;28;19916;-59
2023/04/18 05:42:36;;;;;;;;;;;;;;;5.88;73.60;102577.72;5063983;28;19994;-59
2023/04/18 05:45:01;;;;;;;;;;;;;;;5.89;73.38;102575.94;5064631;28;19977;-60
2023/04/18 05:47:27;;;;;;;;;;;;;;;5.92;73.96;102590.75;5068235;28;19927;-60
2023/04/18 05:49:52;;;;;;;;;;;;;;;5.93;74.07;102585.38;5064581;28;19916;-60
2023/04/18 05:52:18;;;;;;;;;;;;;;;5.98;73.96;102587.72;5057231;28;19924;-59
2023/04/18 05:54:43;;;;;;;;;;;;;;;6.02;74.23;102581.28;5060166;28;19923;-60
2023/04/18 05:57:08;;;;;;;;;;;;;;;6.06;74.41;102577.50;5062902;28;19916;-60
2023/04/18 05:59:33;;;;;;;;;;;;;;;6.10;74.31;102589.59;5067359;28;20011;-60
2023/04/18 06:01:59;;;;;;;;;;;;;;;6.15;74.36;102584.84;5067773;28;19921;-60
2023/04/18 06:04:24;;;;;;;;;;;;;;;6.20;74.51;102594.16;5059408;28;20519;-60
2023/04/18 06:06:49;;;;;;;;;;;;;;;6.25;74.60;102588.56;5063974;28;20306;-60
2023/04/18 06:09:14;;;;;;;;;;;;;;;6.32;74.79;102589.00;5058688;28;20032;-60
2023/04/18 06:11:39;;;;;;;;;;;;;;;6.37;74.98;102597.50;5053674;28;19923;-60
2023/04/18 06:14:05;;;;;;;;;;;;;;;6.42;74.96;102590.97;5061484;28;20325;-60
2023/04/18 06:16:30;;;;;;;;;;;;;;;6.49;75.08;102597.53;5057612;28;19974;-60
2023/04/18 06:18:56;;;;;;;;;;;;;;;6.53;75.25;102598.19;5061566;28;20322;-60
2023/04/18 06:21:21;;;;;;;;;;;;;;;6.58;75.21;102597.88;5059476;28;19966;-60
2023/04/18 06:23:47;;;;;;;;;;;;;;;6.65;75.24;102602.66;5063197;28;19916;-60
2023/04/18 06:26:12;;;;;;;;;;;;;;;6.72;75.67;102593.38;5061691;28;19942;-60
2023/04/18 06:28:37;;;;;;;;;;;;;;;6.80;75.41;102596.34;5064371;28;20353;-60
2023/04/18 06:31:03;;;;;;;;;;;;;;;6.90;75.87;102599.19;5061413;28;21767;-60
2023/04/18 06:33:28;;;;;;;;;;;;;;;7.02;75.98;102608.97;5067386;28;19916;-60
2023/04/18 06:35:53;;;;;;;;;;;;;;;7.11;76.33;102605.69;5061452;28;20359;-60
2023/04/18 06:38:18;;;;;;;;;;;;;;;7.20;75.90;102595.41;5064079;28;19917;-60
2023/04/18 06:40:43;;;;;;;;;;;;;;;7.25;75.32;102601.25;5069205;28;19973;-60
2023/04/18 06:43:08;;;;;;;;;;;;;;;7.32;75.46;102591.94;5068936;28;20374;-60
2023/04/18 06:45:34;;;;;;;;;;;;;;;7.40;75.10;102603.66;5065277;28;19916;-60
2023/04/18 06:48:01;;;;;;;;;;;;;;;7.41;75.06;102586.84;5067654;28;19912;-60
2023/04/18 06:50:26;;;;;;;;;;;;;;;7.53;74.91;102603.69;5064977;28;19924;-60
2023/04/18 06:52:51;;;;;;;;;;;;;;;7.57;74.80;102599.03;5058392;28;19927;-60
2023/04/18 06:55:17;;;;;;;;;;;;;;;7.63;74.70;102602.06;5061126;28;19920;-60
2023/04/18 06:57:42;;;;;;;;;;;;;;;7.68;74.72;102610.50;5067936;28;19939;-60
2023/04/18 07:00:08;;;;;;;;;;;;;;;7.69;74.43;102606.06;5063349;28;19921;-60
2023/04/18 07:02:34;;;;;;;;;;;;;;;7.75;74.67;102613.56;5068578;28;19923;-60
2023/04/18 07:05:00;;;;;;;;;;;;;;;7.80;74.66;102606.13;5068321;28;20440;-60
2023/04/18 07:07:25;;;;;;;;;;;;;;;7.89;74.54;102608.16;5068124;28;20443;-59
2023/04/18 07:09:51;;;;;;;;;;;;;;;7.98;74.18;102612.78;5063285;28;19916;-60
2023/04/18 07:12:16;;;;;;;;;;;;;;;8.03;74.21;102600.06;5067584;28;19923;-60
2023/04/18 07:14:41;;;;;;;;;;;;;;;8.03;73.56;102612.44;5067692;28;19920;-60
2023/04/18 07:17:07;;;;;;;;;;;;;;;7.96;73.56;102600.63;5069046;28;20346;-60
2023/04/18 07:19:32;;;;;;;;;;;;;;;8.05;73.99;102619.31;5064631;28;19916;-60
2023/04/18 07:21:57;;;;;;;;;;;;;;;8.07;73.80;102619.19;5068209;28;20620;-60
2023/04/18 07:24:22;;;;;;;;;;;;;;;8.07;73.90;102622.69;5066979;28;19916;-60
2023/04/18 07:26:48;;;;;;;;;;;;;;;8.09;73.58;102614.63;5062819;28;19970;-60
2023/04/18 07:29:13;;;;;;;;;;;;;;;8.10;73.52;102616.34;5066021;28;19916;-60
2023/04/18 07:31:38;;;;;;;;;;;;;;;8.10;73.69;102612.88;5067787;28;19913;-60
2023/04/18 07:34:04;;;;;;;;;;;;;;;8.11;73.48;102615.41;5067524;28;19923;-60
2023/04/18 07:36:30;;;;;;;;;;;;;;;8.12;73.65;102621.53;5065652;28;19924;-60
2023/04/18 07:38:56;;;;;;;;;;;;;;;8.14;73.76;102627.56;5063829;28;19913;-60
2023/04/18 07:41:21;;;;;;;;;;;;;;;8.08;73.52;102613.78;5056450;28;19913;-60
2023/04/18 07:43:46;;;;;;;;;;;;;;;8.15;73.61;102627.44;5058038;28;19923;-60
2023/04/18 07:46:12;;;;;;;;;;;;;;;8.15;73.40;102621.31;5061681;28;20008;-60
2023/04/18 07:48:37;;;;;;;;;;;;;;;8.16;73.83;102626.50;5067347;28;19913;-60
2023/04/18 07:51:02;;;;;;;;;;;;;;;8.17;73.64;102619.41;5061885;28;20029;-60
2023/04/18 07:53:27;;;;;;;;;;;;;;;8.18;73.62;102626.38;5066150;28;19923;-60
2023/04/18 07:55:53;;;;;;;;;;;;;;;8.21;73.63;102628.81;5066604;28;20432;-60
2023/04/18 07:58:19;;;;;;;;;;;;;;;8.28;74.04;102632.69;5060932;28;19912;-60
2023/04/18 08:00:44;;;;;;;;;;;;;;;8.34;73.98;102630.47;5067284;28;20258;-60
2023/04/18 08:03:10;;;;;;;;;;;;;;;8.40;73.77;102629.19;5068836;28;19963;-60
2023/04/18 08:05:36;;;;;;;;;;;;;;;8.45;73.64;102632.34;5066338;28;20444;-60
2023/04/18 08:08:01;;;;;;;;;;;;;;;8.52;73.68;102636.22;5066364;28;19917;-60
2023/04/18 08:10:26;;;;;;;;;;;;;;;8.58;73.65;102634.91;5058230;28;20427;-60
2023/04/18 08:12:51;;;;;;;;;;;;;;;8.60;73.33;102640.94;5053124;28;19920;-61
2023/04/18 08:15:17;;;;;;;;;;;;;;;8.61;73.22;102635.53;5062354;28;19934;-60
2023/04/18 08:17:43;;;;;;;;;;;;;;;8.72;74.07;102636.56;5065507;28;20003;-60
2023/04/18 08:20:09;;;;;;;;;;;;;;;8.83;74.32;102631.28;5064382;28;19917;-60
2023/04/18 08:22:34;;;;;;;;;;;;;;;8.92;73.74;102631.44;5066570;28;19923;-60
2023/04/18 08:25:00;;;;;;;;;;;;;;;8.96;72.92;102637.34;5065376;28;19925;-60
2023/04/18 08:27:26;;;;;;;;;;;;;;;8.94;72.92;102640.09;5068129;28;19916;-60
2023/04/18 08:29:51;;;;;;;;;;;;;;;9.01;73.17;102640.50;5067434;28;19989;-60
2023/04/18 08:32:16;;;;;;;;;;;;;;;9.06;72.76;102648.09;5067432;28;20026;-60
2023/04/18 08:34:42;;;;;;;;;;;;;;;9.14;73.08;102645.72;5066162;28;19999;-60
2023/04/18 08:37:07;;;;;;;;;;;;;;;9.14;73.10;102645.72;5068306;28;19913;-60
2023/04/18 08:39:32;;;;;;;;;;;;;;;9.16;72.85;102641.13;5065349;28;20366;-60
2023/04/18 08:41:58;;;;;;;;;;;;;;;9.25;72.40;102636.00;5061239;28;20343;-60
2023/04/18 08:44:26;;;;;;;;;;;;;;;9.21;72.03;102647.78;5067724;28;20473;-60
2023/04/18 08:46:51;;;;;;;;;;;;;;;9.22;72.27;102646.81;5058948;28;19955;-60
2023/04/18 08:49:20;;;;;;;;;;;;;;;9.29;72.56;102645.41;5065504;28;20432;-60
2023/04/18 08:51:46;;;;;;;;;;;;;;;9.41;72.51;102640.94;5066356;28;20296;-60
2023/04/18 08:54:11;;;;;;;;;;;;;;;9.49;71.91;102633.22;5067810;28;20018;-60
2023/04/18 08:56:37;;;;;;;;;;;;;;;9.59;71.96;102628.91;5071067;28;19958;-60
2023/04/18 08:59:02;;;;;;;;;;;;;;;9.68;71.83;102634.44;5069979;28;20317;-60
2023/04/18 09:01:47;;;;;;;;;;;;;;;9.80;71.76;102621.06;5070447;28;19963;-60
2023/04/18 09:04:30;;;;;;;;;;;;;;;10.02;71.78;102622.84;5070502;28;20599;-60
2023/04/18 09:06:55;;;;;;;;;;;;;;;10.29;71.30;102624.25;5063454;28;20358;-60
2023/04/18 09:09:26;;;;;;;;;;;;;;;10.44;70.91;102625.69;5069101;28;19926;-60
2023/04/18 09:11:51;;;;;;;;;;;;;;;10.53;70.37;102625.75;5063090;28;19928;-60
2023/04/18 09:14:23;;;;;;;;;;;;;;;10.59;69.40;102627.06;5071508;28;19912;-60
2023/04/18 09:16:49;;;;;;;;;;;;;;;10.55;68.60;102615.84;5069871;28;19916;-60
2023/04/18 09:19:17;;;;;;;;;;;;;;;10.58;68.00;102620.06;5071476;28;20399;-60
2023/04/18 09:21:45;;;;;;;;;;;;;;;10.68;67.81;102620.97;5069029;28;20333;-61
2023/04/18 09:24:22;;;;;;;;;;;;;;;10.89;68.50;102617.50;5068940;28;19916;-60
2023/04/18 09:26:48;;;;;;;;;;;;;;;11.22;68.23;102617.28;5069458;28;19962;-60
2023/04/18 09:29:16;;;;;;;;;;;;;;;11.32;67.30;102612.06;5071360;28;19954;-60
2023/04/18 09:31:59;;;;;;;;;;;;;;;11.30;66.43;102624.66;5070142;28;19912;-60
2023/04/18 09:34:25;;;;;;;;;;;;;;;11.27;65.83;102616.91;5069900;28;20363;-60
2023/04/18 09:37:09;;;;;;;;;;;;;;;11.28;65.80;102629.25;5068638;28;19999;-60
2023/04/18 09:39:36;;;;;;;;;;;;;;;11.21;64.99;102622.75;5069648;28;20309;-60
2023/04/18 09:42:01;;;;;;;;;;;;;;;11.11;65.37;102615.56;5060748;28;19916;-60
2023/04/18 09:44:26;;;;;;;;;;;;;;;11.02;65.09;102619.00;5069038;28;19920;-60
2023/04/18 09:46:52;;;;;;;;;;;;;;;10.96;64.69;102616.84;5069310;28;20404;-60
2023/04/18 09:49:17;;;;;;;;;;;;;;;10.92;65.16;102615.44;5070430;28;20436;-60
2023/04/18 09:51:43;;;;;;;;;;;;;;;10.98;65.79;102606.09;5068570;28;19924;-60
2023/04/18 09:54:09;;;;;;;;;;;;;;;11.09;65.72;102608.69;5068958;28;20454;-60
2023/04/18 09:56:36;;;;;;;;;;;;;;;11.21;65.19;102601.47;5067990;28;20167;-60
2023/04/18 09:59:06;;;;;;;;;;;;;;;11.42;65.71;102592.50;5069723;28;20408;-60
2023/04/18 10:01:32;;;;;;;;;;;;;;;11.61;65.08;102597.06;5069270;28;19924;-60
2023/04/18 10:03:59;;;;;;;;;;;;;;;11.63;64.69;102608.41;5070320;28;19959;-60
2023/04/18 10:06:26;;;;;;;;;;;;;;;11.61;64.09;102604.22;5069390;28;19917;-61
2023/04/18 10:08:52;;;;;;;;;;;;;;;11.53;63.69;102606.66;5068803;28;19925;-60
2023/04/18 10:11:17;;;;;;;;;;;;;;;11.45;64.01;102604.69;5068862;28;19916;-60
2023/04/18 10:13:46;;;;;;;;;;;;;;;11.39;63.10;102614.03;5068307;28;19975;-61
2023/04/18 10:16:11;;;;;;;;;;;;;;;11.33;63.50;102606.59;5064581;28;19917;-60
2023/04/18 10:18:36;;;;;;;;;;;;;;;11.50;63.70;102610.44;5069915;28;20004;-60
2023/04/18 10:21:02;;;;;;;;;;;;;;;11.58;64.22;102610.66;5070268;28;20007;-60
2023/04/18 10:23:33;;;;;;;;;;;;;;;11.59;64.61;102608.81;5061833;28;19927;-60
2023/04/18 10:25:59;;;;;;;;;;;;;;;11.53;63.81;102606.66;5064869;28;19962;-60
2023/04/18 10:28:26;;;;;;;;;;;;;;;11.48;63.84;102612.41;5066397;28;19920;-60
2023/04/18 10:30:52;;;;;;;;;;;;;;;11.49;64.14;102619.41;5070108;28;19966;-60
2023/04/18 10:33:23;;;;;;;;;;;;;;;11.47;63.73;102608.06;5056212;28;20339;-60
2023/04/18 10:36:15;;;;;;;;;;;;;;;11.44;63.61;102606.50;5061279;28;19974;-60
2023/04/18 10:38:45;;;;;;;;;;;;;;;11.49;63.50;102606.09;5055490;28;20389;-60
2023/04/18 10:41:21;;;;;;;;;;;;;;;11.58;63.79;102604.47;5059390;28;19959;-60
2023/04/18 10:44:04;;;;;;;;;;;;;;;11.61;62.03;102602.38;5063416;28;19924;-60
2023/04/18 10:46:29;;;;;;;;;;;;;;;11.54;61.29;102613.69;5061629;28;19916;-60
2023/04/18 10:49:11;;;;;;;;;;;;;;;11.36;61.54;102610.81;5061059;28;19924;-60
2023/04/18 10:51:36;;;;;;;;;;;;;;;11.26;61.67;102607.22;5062318;28;19920;-61
2023/04/18 10:54:02;;;;;;;;;;;;;;;11.18;62.16;102614.06;5069162;28;19922;-60
2023/04/18 10:56:27;;;;;;;;;;;;;;;11.15;62.39;102619.66;5065964;28;19926;-60
2023/04/18 10:58:53;;;;;;;;;;;;;;;11.10;63.30;102616.53;5061542;28;19920;-60
2023/04/18 11:01:28;;;;;;;;;;;;;;;11.17;63.29;102611.53;5063084;28;19917;-60
2023/04/18 11:03:54;;;;;;;;;;;;;;;11.17;62.82;102608.88;5059154;28;19925;-60
2023/04/18 11:06:20;;;;;;;;;;;;;;;11.11;63.08;102615.56;5064984;28;19916;-60
2023/04/18 11:08:45;;;;;;;;;;;;;;;11.06;62.66;102620.44;5057776;28;19913;-59
2023/04/18 11:11:11;;;;;;;;;;;;;;;11.13;62.87;102610.13;5054984;28;19917;-60
2023/04/18 11:13:51;;;;;;;;;;;;;;;11.02;62.43;102618.16;5066160;28;19920;-61
2023/04/18 11:16:30;;;;;;;;;;;;;;;11.00;62.34;102604.16;5060708;28;19923;-61
2023/04/18 11:18:56;;;;;;;;;;;;;;;10.94;62.66;102615.28;5056948;28;20336;-60
2023/04/18 11:21:26;;;;;;;;;;;;;;;11.01;62.71;102609.34;5065316;28;19962;-60
2023/04/18 11:23:52;;;;;;;;;;;;;;;10.93;63.47;102611.78;5061419;28;19912;-60
2023/04/18 11:26:18;;;;;;;;;;;;;;;10.93;63.74;102614.44;5059636;28;19916;-60
2023/04/18 11:28:49;;;;;;;;;;;;;;;10.96;63.91;102595.59;5058029;28;19927;-60
2023/04/18 11:31:14;;;;;;;;;;;;;;;10.88;63.90;102611.34;5060118;28;20592;-60
2023/04/18 11:33:39;;;;;;;;;;;;;;;10.85;63.78;102615.09;5060915;28;19925;-60
2023/04/18 11:36:05;;;;;;;;;;;;;;;10.90;64.04;102609.41;5064202;28;20416;-60
2023/04/18 11:38:30;;;;;;;;;;;;;;;10.83;64.19;102610.91;5057671;28;19921;-60
2023/04/18 11:40:56;;;;;;;;;;;;;;;10.86;64.42;102608.81;5055879;28;19916;-60
2023/04/18 11:43:24;;;;;;;;;;;;;;;10.91;64.75;102599.59;5060406;28;19956;-60
2023/04/18 11:45:50;;;;;;;;;;;;;;;10.95;64.43;102601.03;5063865;28;20419;-61
2023/04/18 11:48:16;;;;;;;;;;;;;;;10.97;64.84;102607.91;5057959;28;19917;-60
2023/04/18 11:50:41;;;;;;;;;;;;;;;11.00;64.74;102609.50;5065116;28;19925;-60
2023/04/18 11:53:06;;;;;;;;;;;;;;;11.00;65.09;102604.16;5063012;28;19978;-60
2023/04/18 11:55:31;;;;;;;;;;;;;;;11.09;65.71;102609.53;5060307;28;19916;-61
2023/04/18 11:57:57;;;;;;;;;;;;;;;11.22;65.83;102608.47;5057821;28;19955;-60
2023/04/18 12:00:30;;;;;;;;;;;;;;;11.25;65.33;102600.22;5055624;28;19927;-60
2023/04/18 12:02:55;;;;;;;;;;;;;;;11.26;64.77;102600.09;5056996;28;19916;-61
2023/04/18 12:05:47;;;;;;;;;;;;;;;11.20;64.75;102592.66;5052830;28;20381;-60
2023/04/18 12:08:19;;;;;;;;;;;;;;;11.17;64.75;102606.22;5059227;28;20019;-60
2023/04/18 12:10:53;;;;;;;;;;;;;;;11.16;65.55;102604.53;5066015;28;19963;-60
2023/04/18 12:13:28;;;;;;;;;;;;;;;11.27;65.79;102595.63;5068581;28;20330;-60
2023/04/18 12:15:53;;;;;;;;;;;;;;;11.29;65.40;102594.53;5056114;28;19917;-60
2023/04/18 12:18:18;;;;;;;;;;;;;;;11.32;65.27;102590.78;5060682;28;19962;-60
2023/04/18 12:20:46;;;;;;;;;;;;;;;11.25;64.95;102602.88;5066062;28;19928;-61
2023/04/18 12:23:29;;;;;;;;;;;;;;;11.26;65.50;102604.56;5056892;28;19935;-60
2023/04/18 12:26:01;;;;;;;;;;;;;;;11.26;65.38;102604.56;5057735;28;19916;-60
2023/04/18 12:28:26;;;;;;;;;;;;;;;11.27;66.42;102600.94;5068028;28;19923;-60
2023/04/18 12:30:51;;;;;;;;;;;;;;;11.50;66.39;102599.81;5063527;28;20003;-60
2023/04/18 12:33:16;;;;;;;;;;;;;;;11.82;66.18;102607.66;5061918;28;19931;-61
2023/04/18 12:35:41;;;;;;;;;;;;;;;12.01;65.90;102602.41;5067363;28;19967;-60
2023/04/18 12:38:07;;;;;;;;;;;;;;;12.14;65.04;102607.44;5064609;28;20290;-60